Defiance, OH

6:52 AM EDT on June 03, 2015 (GMT -0400)
Defiance Memorial | | Change Station
CLOSE
Current Station
Airport
Location: Defiance,
Elevation: 705 ft
Nearby Weather Stations
Active Advisory: Flood Warning

Elev 705 ft 41.34 °N, 84.43 °W | Updated 59 minutes ago

Partly Cloudy
Partly Cloudy
49 °F
Feels Like 49 °F
N
0
Wind Variable Wind from North

Today
High -- | Low -- °F
--% Chance of Precip.
Yesterday
High -- | Low -- °F
Precip. -- in
6:05 AM 9:05 PM
Full, 99% visible
Pressure 30.11 in
Visibility 10.0 miles
Clouds Mostly Cloudy 3600 ft
Dew Point 46 °F
Humidity 90%
Rainfall 0.00 in
Snow Depth Not available.
UV 0 out of 12
Pollen 8.20 out of 12
Air Quality Not available.
Flu Activity Sporadic
METAR KDFI 030953Z AUTO 00000KT 10SM BKN036 09/08 A3011 RMK AO2 SLP196 T00940078

More Conditions Fewer Conditions

Pressure 30.11 in
Visibility 10.0 miles
Clouds Mostly Cloudy 3600 ft
Dew Point 46 °F
Humidity 90%
Rainfall 0.00 in
Snow Depth Not available.
UV 0 out of 12
Pollen 8.20 out of 12
Air Quality Not available.
Flu Activity Sporadic
METAR KDFI 030953Z AUTO 00000KT 10SM BKN036 09/08 A3011 RMK AO2 SLP196 T00940078

More Conditions Fewer Conditions

10-Day Weather Forecast

×

Almanac

Astronomy

Jun. 03, 2015 Rise Set
Actual Time
Civil Twilight
Nautical Twilight
Astronomical Twilight
Moon
Length of Visible Light
Length of Day
Tomorrow will be .
, % of the Moon is Illuminated

Today's Extremes

State Highs State Lows

Community

WunderPhotos

Upload Photos

1,826,198 photos uploaded!

WunderBlogs® & News

Nearby

Air Quality

  Air Quality AQ Index Pollutant
Not available.

Snow Depth

Station Depth Elevation

Earthquake Activity

City Distance Mag. Time & Date
Minimum magnitude displayed is 2.5.

Coastal Water Temperatures

Place Temperature

Stations

Nearby Weather Stations

Station Location Temp. Windchill Dew Point Humidity Wind Precip. Elev Updated Type
                   
Flood Warning
Statement as of 6:08 AM EDT on June 03, 2015

the Flood Warning has been extended for
the Tiffin River near Stryker
* until Thursday morning.
* At 5 am Wednesday the stage was 11.2 feet and falling.
* Minor flooding is occurring.
* Flood stage is 11.0 feet.
* Forecast... the river will fall below the 11.0 foot flood stage
around 10 am Wednesday June 3.
* At 11.0 feet... flooding of lowland areas around Stryker can be
expected.


Lat... Lon 4130 8444 4149 8446 4159 8439 4159 8429
      4130 8438